createdAt,value
2023-09-19T00:00:23.563Z,8.68
2023-09-19T00:03:00.720Z,9.85
2023-09-19T00:05:36.064Z,9.82
2023-09-19T00:08:06.807Z,9.43
2023-09-19T00:10:37.610Z,8.82
2023-09-19T00:13:09.023Z,9.70
2023-09-19T00:15:41.774Z,9.68
2023-09-19T00:18:10.188Z,10.02
2023-09-19T00:20:38.283Z,10.25
2023-09-19T00:23:05.941Z,9.80
2023-09-19T00:25:39.215Z,10.05
2023-09-19T00:28:07.805Z,10.50
2023-09-19T00:30:39.608Z,10.30
2023-09-19T00:33:09.733Z,10.48
2023-09-19T00:35:39.182Z,9.98
2023-09-19T00:38:07.922Z,10.55
2023-09-19T00:40:34.876Z,10.05
2023-09-19T00:43:01.690Z,9.82
2023-09-19T00:45:29.886Z,10.40
2023-09-19T00:47:58.564Z,10.23
2023-09-19T00:50:28.578Z,10.90
2023-09-19T00:52:59.045Z,9.80
2023-09-19T00:55:27.088Z,9.43
2023-09-19T00:57:54.058Z,9.65
2023-09-19T01:00:21.461Z,10.13
2023-09-19T01:02:49.164Z,9.45
2023-09-19T01:05:16.877Z,9.90
2023-09-19T01:07:45.848Z,10.40
2023-09-19T01:10:18.372Z,9.07
2023-09-19T01:12:49.276Z,9.65
2023-09-19T01:15:36.982Z,9.77
2023-09-19T01:18:34.758Z,9.23
2023-09-19T01:21:24.492Z,9.25
2023-09-19T01:24:09.248Z,9.05
2023-09-19T01:29:36.205Z,9.93
2023-09-19T01:32:06.092Z,10.32
2023-09-19T01:35:05.381Z,10.50
2023-09-19T01:37:32.887Z,10.20
2023-09-19T01:40:17.838Z,11.52
2023-09-19T01:43:01.179Z,10.65
2023-09-19T01:45:28.486Z,10.52
2023-09-19T01:47:57.727Z,10.88
2023-09-19T01:51:03.410Z,11.20
2023-09-19T01:53:53.479Z,10.73
2023-09-19T01:56:33.945Z,11.43
2023-09-19T01:59:07.198Z,10.73
2023-09-19T02:01:36.600Z,10.93
2023-09-19T02:04:03.947Z,11.70
2023-09-19T02:06:30.845Z,10.98
2023-09-19T02:08:57.546Z,11.85
2023-09-19T02:11:24.768Z,11.40
2023-09-19T02:13:55.904Z,11.85
2023-09-19T02:16:23.100Z,12.60
2023-09-19T02:18:53.188Z,11.52
2023-09-19T02:21:19.969Z,11.43
2023-09-19T02:23:48.670Z,12.40
2023-09-19T02:26:15.456Z,12.45
2023-09-19T02:28:42.307Z,12.23
2023-09-19T02:31:09.245Z,11.27
2023-09-19T02:33:36.297Z,10.75
2023-09-19T02:36:05.072Z,10.68
2023-09-19T02:38:31.899Z,10.82
2023-09-19T02:40:58.604Z,10.35
2023-09-19T02:43:25.747Z,10.38
2023-09-19T02:45:56.196Z,9.90
2023-09-19T02:48:23.053Z,9.77
2023-09-19T02:50:53.405Z,10.50
2023-09-19T02:53:20.522Z,10.10
2023-09-19T02:55:48.357Z,8.88
2023-09-19T02:58:16.273Z,9.68
2023-09-19T03:00:43.710Z,8.23
2023-09-19T03:03:10.829Z,8.15
2023-09-19T03:05:39.676Z,8.38
2023-09-19T03:08:07.628Z,9.27
2023-09-19T03:10:34.426Z,9.05
2023-09-19T03:13:01.300Z,9.45
2023-09-19T03:15:28.244Z,8.95
2023-09-19T03:17:55.358Z,8.95
2023-09-19T03:20:22.459Z,8.68
2023-09-19T03:22:49.674Z,8.95
2023-09-19T03:25:18.709Z,8.63
2023-09-19T03:27:45.861Z,9.98
2023-09-19T03:30:14.710Z,8.75
2023-09-19T03:32:51.520Z,9.23
2023-09-19T03:35:19.520Z,9.25
2023-09-19T03:37:46.447Z,8.20
2023-09-19T03:40:17.336Z,7.50
2023-09-19T03:42:44.069Z,6.28
2023-09-19T03:45:14.527Z,6.28
2023-09-19T03:47:42.064Z,5.75
2023-09-19T03:50:09.644Z,5.57
2023-09-19T03:52:36.400Z,6.32
2023-09-19T03:55:06.479Z,5.47
2023-09-19T03:57:33.332Z,5.93
2023-09-19T04:00:00.027Z,5.35
2023-09-19T04:02:26.845Z,5.68
2023-09-19T04:04:53.909Z,4.90
2023-09-19T04:07:23.928Z,4.75
2023-09-19T04:09:50.828Z,4.65
2023-09-19T04:12:20.183Z,5.13
2023-09-19T04:14:46.890Z,5.15
2023-09-19T04:17:13.830Z,5.07
2023-09-19T04:19:42.843Z,5.28
2023-09-19T04:22:10.365Z,5.57
2023-09-19T04:24:37.142Z,4.22
2023-09-19T04:27:04.116Z,4.57
2023-09-19T04:29:31.089Z,4.00
2023-09-19T04:32:01.109Z,3.53
2023-09-19T04:34:28.649Z,3.20
2023-09-19T04:36:57.751Z,2.92
2023-09-19T04:39:27.267Z,3.22
2023-09-19T04:41:54.407Z,2.65
2023-09-19T04:44:21.130Z,2.30
2023-09-19T04:46:48.526Z,2.42
2023-09-19T04:49:15.264Z,2.55
2023-09-19T04:51:41.937Z,1.80
2023-09-19T04:54:08.702Z,1.63
2023-09-19T04:56:35.473Z,2.00
2023-09-19T04:59:02.236Z,1.52
2023-09-19T05:01:29.021Z,1.50
2023-09-19T05:03:55.755Z,1.25
2023-09-19T05:06:23.521Z,1.92
2023-09-19T05:08:53.951Z,1.40
2023-09-19T05:11:23.042Z,1.10
2023-09-19T05:13:51.517Z,1.13
2023-09-19T05:16:18.446Z,1.17
2023-09-19T05:18:45.500Z,1.20
2023-09-19T05:21:12.473Z,1.20
2023-09-19T05:23:39.418Z,1.30
2023-09-19T05:26:06.447Z,1.25
2023-09-19T05:28:36.189Z,1.35
2023-09-19T05:31:06.267Z,0.93
2023-09-19T05:33:33.393Z,1.27
2023-09-19T05:36:00.323Z,1.00
2023-09-19T05:38:27.893Z,0.90
2023-09-19T05:40:55.283Z,1.13
2023-09-19T05:43:22.265Z,1.30
2023-09-19T05:45:49.394Z,1.33
2023-09-19T05:48:17.620Z,1.10
2023-09-19T05:50:50.150Z,1.38
2023-09-19T05:53:17.375Z,1.33
2023-09-19T05:55:44.513Z,1.17
2023-09-19T05:58:11.871Z,1.20
2023-09-19T06:00:44.087Z,1.20
2023-09-19T06:03:10.967Z,1.10
2023-09-19T06:05:37.719Z,1.25
2023-09-19T06:08:09.105Z,1.40
2023-09-19T06:10:36.416Z,1.90
2023-09-19T06:13:05.954Z,2.10
2023-09-19T06:15:34.578Z,1.30
2023-09-19T06:18:03.552Z,1.40
2023-09-19T06:20:30.970Z,1.13
2023-09-19T06:22:58.399Z,1.20
2023-09-19T06:25:28.658Z,1.65
2023-09-19T06:27:56.123Z,1.02
2023-09-19T06:30:25.664Z,1.40
2023-09-19T06:32:59.514Z,1.40
2023-09-19T06:35:27.747Z,1.42
2023-09-19T06:37:54.590Z,1.50
2023-09-19T06:40:22.233Z,1.40
2023-09-19T06:42:52.191Z,1.10
2023-09-19T06:45:19.653Z,1.58
2023-09-19T06:47:51.458Z,1.13
2023-09-19T06:50:24.439Z,1.63
2023-09-19T06:52:54.265Z,1.40
2023-09-19T06:55:22.512Z,1.50
2023-09-19T06:57:49.723Z,1.33
2023-09-19T07:00:19.523Z,1.40
2023-09-19T07:02:55.657Z,1.40
2023-09-19T07:05:23.194Z,1.73
2023-09-19T07:07:50.142Z,1.50
2023-09-19T07:10:17.364Z,1.50
2023-09-19T07:12:44.377Z,1.52
2023-09-19T07:15:11.169Z,1.30
2023-09-19T07:17:40.454Z,1.38
2023-09-19T07:20:09.255Z,1.15
2023-09-19T07:22:37.576Z,1.55
2023-09-19T07:25:04.679Z,1.13
2023-09-19T07:27:32.573Z,1.13
2023-09-19T07:30:00.128Z,1.48
2023-09-19T07:32:26.836Z,1.83
2023-09-19T07:34:54.127Z,1.60
2023-09-19T07:37:22.537Z,1.63
2023-09-19T07:39:49.306Z,2.05
2023-09-19T07:42:19.062Z,1.58
2023-09-19T07:44:48.753Z,1.52
2023-09-19T07:47:15.978Z,1.10
2023-09-19T07:49:43.807Z,1.75
2023-09-19T07:52:13.455Z,1.13
2023-09-19T07:54:42.620Z,1.58
2023-09-19T07:57:09.269Z,1.55
2023-09-19T07:59:40.056Z,1.27
2023-09-19T08:02:06.922Z,1.23
2023-09-19T08:04:35.125Z,1.13
2023-09-19T08:07:04.561Z,1.30
2023-09-19T08:09:34.409Z,1.13
2023-09-19T08:12:04.013Z,1.33
2023-09-19T08:14:32.734Z,1.10
2023-09-19T08:17:00.260Z,1.02
2023-09-19T08:19:32.944Z,1.33
2023-09-19T08:21:59.905Z,1.35
2023-09-19T08:24:29.783Z,1.10
2023-09-19T08:26:57.563Z,1.70
2023-09-19T08:29:28.902Z,1.50
2023-09-19T08:31:57.276Z,1.65
2023-09-19T08:34:25.461Z,1.52
2023-09-19T08:36:55.546Z,1.65
2023-09-19T08:39:22.170Z,1.52
2023-09-19T08:41:48.865Z,1.90
2023-09-19T08:44:15.655Z,1.75
2023-09-19T08:46:43.386Z,1.38
2023-09-19T08:49:23.651Z,1.20
2023-09-19T08:52:02.211Z,1.30
2023-09-19T08:54:36.169Z,1.15
2023-09-19T08:57:12.072Z,1.30
2023-09-19T08:59:41.506Z,3.33
2023-09-19T09:02:16.509Z,1.90
2023-09-19T09:04:45.218Z,1.58
2023-09-19T09:07:13.999Z,1.33
2023-09-19T09:09:45.024Z,1.10
2023-09-19T09:12:16.652Z,1.25
2023-09-19T09:14:50.011Z,1.60
2023-09-19T09:17:21.488Z,1.20
2023-09-19T09:19:48.850Z,1.00
2023-09-19T09:22:16.047Z,1.20
2023-09-19T09:24:59.535Z,1.40
2023-09-19T09:27:26.525Z,1.35
2023-09-19T09:29:56.277Z,1.20
2023-09-19T09:32:23.197Z,1.35
2023-09-19T09:34:54.695Z,0.98
2023-09-19T09:37:23.403Z,1.30
2023-09-19T09:39:59.351Z,1.27
2023-09-19T09:42:36.504Z,1.42
2023-09-19T09:45:20.939Z,1.30
2023-09-19T09:47:56.678Z,1.77
2023-09-19T09:50:37.587Z,1.40
2023-09-19T09:53:07.905Z,1.40
2023-09-19T09:56:01.005Z,1.67
2023-09-19T09:58:31.234Z,1.30
2023-09-19T10:00:59.003Z,1.50
2023-09-19T10:03:45.562Z,1.50
2023-09-19T10:06:35.314Z,1.30
2023-09-19T10:09:12.889Z,1.10
2023-09-19T10:11:45.419Z,1.17
2023-09-19T10:14:24.974Z,1.35
2023-09-19T10:17:01.674Z,1.20
2023-09-19T10:19:47.681Z,1.52
2023-09-19T10:22:21.877Z,1.80
2023-09-19T10:25:02.247Z,1.30
2023-09-19T10:27:38.397Z,1.40
2023-09-19T10:30:08.782Z,1.40
2023-09-19T10:32:37.446Z,1.30
2023-09-19T10:35:06.658Z,1.50
2023-09-19T10:37:35.505Z,1.48
2023-09-19T10:40:02.285Z,1.80
2023-09-19T10:42:34.282Z,1.90
2023-09-19T10:45:03.845Z,1.52
2023-09-19T10:47:32.257Z,1.25
2023-09-19T10:49:59.705Z,1.52
2023-09-19T10:52:28.868Z,5.95
2023-09-19T10:54:59.785Z,3.53
2023-09-19T10:57:29.068Z,2.13
2023-09-19T11:00:24.912Z,1.55
2023-09-19T11:03:10.807Z,1.60
2023-09-19T11:05:41.732Z,1.95
2023-09-19T11:08:09.549Z,1.33
2023-09-19T11:10:50.297Z,1.20
2023-09-19T11:13:27.928Z,1.50
2023-09-19T11:16:01.034Z,1.38
2023-09-19T11:18:43.301Z,1.30
2023-09-19T11:21:35.134Z,1.40
2023-09-19T11:24:11.356Z,1.38
2023-09-19T11:26:49.095Z,1.30
2023-09-19T11:29:42.888Z,1.55
2023-09-19T11:32:11.291Z,1.48
2023-09-19T11:34:38.251Z,1.48
2023-09-19T11:37:34.017Z,1.52
2023-09-19T11:40:17.198Z,1.70
2023-09-19T11:42:55.327Z,1.40
2023-09-19T11:45:58.598Z,1.10
2023-09-19T11:48:28.460Z,1.30
2023-09-19T11:50:56.426Z,1.40
2023-09-19T11:53:24.230Z,1.52
2023-09-19T11:55:51.805Z,1.55
2023-09-19T11:58:21.128Z,1.50
2023-09-19T12:00:55.857Z,1.58
2023-09-19T12:03:24.048Z,1.50
2023-09-19T12:05:50.953Z,1.48
2023-09-19T12:08:18.429Z,1.13
2023-09-19T12:10:52.503Z,1.50
2023-09-19T12:13:22.404Z,1.20
2023-09-19T12:15:51.946Z,1.42
2023-09-19T12:18:31.686Z,1.55
2023-09-19T12:21:05.994Z,1.63
2023-09-19T12:23:32.764Z,1.50
2023-09-19T12:26:00.587Z,1.50
2023-09-19T12:28:32.697Z,1.98
2023-09-19T12:31:08.796Z,1.67
2023-09-19T12:33:36.673Z,2.50
2023-09-19T12:36:30.329Z,1.80
2023-09-19T12:39:00.329Z,1.88
2023-09-19T12:41:27.685Z,1.45
2023-09-19T12:43:55.653Z,1.60
2023-09-19T12:46:27.426Z,1.60
2023-09-19T12:49:19.884Z,1.55
2023-09-19T12:51:48.262Z,1.70
2023-09-19T12:54:16.399Z,1.42
2023-09-19T12:56:46.027Z,1.60
2023-09-19T12:59:17.078Z,1.38
2023-09-19T13:01:47.493Z,1.50
2023-09-19T13:04:20.409Z,2.92
2023-09-19T13:06:50.331Z,1.88
2023-09-19T13:09:18.654Z,1.90
2023-09-19T13:11:47.136Z,1.67
2023-09-19T13:14:21.124Z,1.52
2023-09-19T13:17:04.469Z,1.33
2023-09-19T13:19:44.840Z,1.40
2023-09-19T13:22:55.291Z,1.30
2023-09-19T13:25:23.280Z,1.23
2023-09-19T13:27:53.439Z,1.40
2023-09-19T13:30:21.554Z,1.60
2023-09-19T13:32:49.226Z,1.33
2023-09-19T13:35:17.175Z,1.33
2023-09-19T13:37:44.729Z,1.40
2023-09-19T13:40:12.924Z,1.30
2023-09-19T13:42:41.004Z,1.27
2023-09-19T13:45:08.522Z,1.42
2023-09-19T13:47:37.227Z,1.30
2023-09-19T13:50:05.789Z,1.35
2023-09-19T13:52:32.933Z,1.10
2023-09-19T13:55:00.569Z,1.33
2023-09-19T13:57:28.287Z,1.58
2023-09-19T13:59:55.812Z,1.23
2023-09-19T14:02:26.411Z,1.35
2023-09-19T14:04:53.842Z,1.40
2023-09-19T14:07:21.830Z,1.95
2023-09-19T14:09:48.907Z,1.73
2023-09-19T14:12:16.657Z,1.77
2023-09-19T14:14:43.773Z,1.55
2023-09-19T14:17:10.953Z,1.52
2023-09-19T14:19:38.385Z,1.42
2023-09-19T14:22:09.047Z,1.05
2023-09-19T14:24:39.307Z,1.20
2023-09-19T14:27:07.942Z,1.30
2023-09-19T14:29:34.694Z,1.67
2023-09-19T14:32:01.502Z,1.08
2023-09-19T14:34:28.186Z,1.30
2023-09-19T14:36:57.803Z,1.40
2023-09-19T14:39:24.681Z,1.67
2023-09-19T14:41:51.467Z,1.55
2023-09-19T14:44:18.288Z,1.75
2023-09-19T14:46:46.447Z,1.65
2023-09-19T14:49:13.300Z,1.85
2023-09-19T14:51:45.307Z,2.08
2023-09-19T14:54:12.360Z,1.75
2023-09-19T14:56:39.006Z,1.55
2023-09-19T14:59:05.968Z,1.25
2023-09-19T15:01:33.756Z,1.25
2023-09-19T15:04:02.325Z,1.20
2023-09-19T15:06:29.645Z,1.20
2023-09-19T15:08:56.520Z,1.40
2023-09-19T15:11:23.825Z,1.38
2023-09-19T15:13:53.902Z,1.63
2023-09-19T15:16:20.939Z,1.45
2023-09-19T15:18:50.902Z,1.27
2023-09-19T15:21:18.901Z,1.60
2023-09-19T15:23:47.920Z,1.10
2023-09-19T15:26:21.729Z,1.40
2023-09-19T15:28:49.451Z,1.20
2023-09-19T15:31:16.417Z,1.70
2023-09-19T15:33:43.143Z,1.05
2023-09-19T15:36:14.857Z,1.55
2023-09-19T15:39:01.923Z,1.60
2023-09-19T15:41:31.302Z,1.40
2023-09-19T15:44:00.686Z,1.52
2023-09-19T15:46:28.152Z,1.75
2023-09-19T15:48:55.481Z,1.30
2023-09-19T15:51:22.235Z,1.45
2023-09-19T15:53:54.781Z,1.45
2023-09-19T15:56:24.072Z,24.30
2023-09-19T15:58:53.035Z,20.27
2023-09-19T16:01:19.831Z,9.70
2023-09-19T16:03:51.318Z,6.85
2023-09-19T16:06:20.466Z,4.05
2023-09-19T16:08:48.825Z,3.22
2023-09-19T16:11:16.674Z,2.63
2023-09-19T16:13:44.206Z,2.15
2023-09-19T16:16:14.215Z,2.05
2023-09-19T16:18:41.493Z,1.80
2023-09-19T16:21:12.471Z,1.80
2023-09-19T16:23:39.217Z,1.70
2023-09-19T16:26:10.456Z,1.70
2023-09-19T16:28:38.300Z,1.75
2023-09-19T16:31:05.605Z,1.52
2023-09-19T16:33:37.837Z,2.20
2023-09-19T16:36:24.985Z,1.65
2023-09-19T16:38:52.394Z,1.73
2023-09-19T16:41:20.612Z,1.98
2023-09-19T16:43:48.038Z,2.42
2023-09-19T16:46:17.917Z,2.08
2023-09-19T16:48:56.111Z,2.10
2023-09-19T16:51:29.916Z,2.15
2023-09-19T16:53:57.003Z,1.90
2023-09-19T16:56:23.830Z,2.20
2023-09-19T16:58:53.044Z,2.42
2023-09-19T17:01:21.330Z,2.50
2023-09-19T17:03:49.482Z,2.33
2023-09-19T17:06:19.101Z,1.85
2023-09-19T17:08:46.853Z,2.10
2023-09-19T17:11:16.742Z,2.40
2023-09-19T17:13:43.797Z,2.40
2023-09-19T17:16:12.207Z,2.25
2023-09-19T17:18:42.857Z,2.53
2023-09-19T17:21:13.745Z,1.98
2023-09-19T17:23:42.098Z,2.42
2023-09-19T17:26:18.139Z,2.67
2023-09-19T17:28:45.090Z,2.35
2023-09-19T17:31:23.286Z,2.78
2023-09-19T17:33:52.013Z,2.47
2023-09-19T17:36:25.019Z,2.28
2023-09-19T17:38:54.698Z,2.53
2023-09-19T17:41:23.079Z,2.78
2023-09-19T17:44:00.494Z,2.85
2023-09-19T17:46:30.919Z,2.50
2023-09-19T17:48:59.711Z,2.35
2023-09-19T17:51:28.253Z,2.28
2023-09-19T17:53:58.383Z,2.67
2023-09-19T17:56:25.782Z,7.35
2023-09-19T17:59:00.172Z,8.93
2023-09-19T18:01:33.448Z,4.82
2023-09-19T18:04:03.406Z,4.00
2023-09-19T18:06:33.948Z,4.68
2023-09-19T18:09:08.697Z,3.33
2023-09-19T18:11:35.693Z,2.58
2023-09-19T18:14:03.361Z,2.45
2023-09-19T18:16:34.872Z,2.65
2023-09-19T18:19:03.263Z,2.58
2023-09-19T18:21:30.895Z,2.47
2023-09-19T18:24:00.308Z,2.65
2023-09-19T18:26:28.741Z,2.47
2023-09-19T18:28:55.573Z,2.53
2023-09-19T18:31:22.664Z,2.38
2023-09-19T18:33:50.985Z,2.15
2023-09-19T18:36:17.868Z,2.05
2023-09-19T18:38:46.059Z,3.15
2023-09-19T18:41:16.230Z,2.17
2023-09-19T18:43:43.582Z,2.72
2023-09-19T18:46:11.311Z,2.40
2023-09-19T18:48:38.824Z,2.60
2023-09-19T18:51:09.506Z,2.47
2023-09-19T18:53:37.100Z,2.30
2023-09-19T18:56:13.384Z,2.38
2023-09-19T18:58:40.749Z,2.50
2023-09-19T19:01:09.401Z,2.47
2023-09-19T19:03:36.888Z,2.60
2023-09-19T19:06:11.278Z,2.63
2023-09-19T19:08:39.150Z,2.90
2023-09-19T19:11:11.234Z,3.47
2023-09-19T19:13:37.962Z,3.00
2023-09-19T19:16:05.005Z,2.70
2023-09-19T19:18:32.303Z,2.50
2023-09-19T19:21:03.524Z,3.22
2023-09-19T19:23:30.307Z,2.65
2023-09-19T19:26:01.440Z,2.80
2023-09-19T19:28:30.289Z,2.58
2023-09-19T19:30:57.281Z,2.25
2023-09-19T19:33:25.541Z,2.20
2023-09-19T19:35:52.757Z,2.28
2023-09-19T19:38:21.146Z,2.38
2023-09-19T19:40:49.958Z,2.03
2023-09-19T19:43:16.856Z,2.45
2023-09-19T19:45:43.518Z,2.40
2023-09-19T19:48:10.698Z,2.40
2023-09-19T19:50:39.591Z,2.53
2023-09-19T19:53:06.346Z,2.30
2023-09-19T19:55:33.300Z,2.70
2023-09-19T19:58:00.282Z,2.75
2023-09-19T20:00:28.451Z,2.80
2023-09-19T20:02:55.328Z,2.97
2023-09-19T20:05:22.135Z,2.70
2023-09-19T20:07:49.444Z,2.58
2023-09-19T20:10:20.919Z,2.67
2023-09-19T20:12:50.806Z,2.72
2023-09-19T20:15:17.959Z,3.40
2023-09-19T20:17:45.045Z,3.50
2023-09-19T20:20:18.712Z,3.33
2023-09-19T20:22:46.716Z,2.93
2023-09-19T20:25:13.709Z,2.90
2023-09-19T20:27:41.169Z,3.03
2023-09-19T20:30:09.889Z,2.90
2023-09-19T20:32:40.504Z,2.92
2023-09-19T20:35:08.979Z,3.13
2023-09-19T20:37:38.364Z,2.67
2023-09-19T20:40:11.352Z,3.28
2023-09-19T20:42:41.241Z,3.13
2023-09-19T20:45:14.077Z,2.85
2023-09-19T20:47:41.358Z,3.15
2023-09-19T20:50:09.524Z,2.85
2023-09-19T20:52:37.189Z,2.50
2023-09-19T20:55:04.630Z,2.10
2023-09-19T20:57:31.308Z,3.25
2023-09-19T20:59:58.210Z,2.75
2023-09-19T21:02:24.945Z,2.58
2023-09-19T21:04:51.767Z,2.90
2023-09-19T21:07:18.597Z,2.80
2023-09-19T21:09:45.249Z,2.70
2023-09-19T21:12:11.859Z,2.83
2023-09-19T21:14:39.199Z,2.55
2023-09-19T21:17:07.861Z,2.90
2023-09-19T21:19:35.143Z,2.80
2023-09-19T21:22:04.845Z,2.30
2023-09-19T21:24:33.915Z,2.83
2023-09-19T21:27:05.951Z,2.70
2023-09-19T21:29:32.997Z,2.38
2023-09-19T21:31:59.787Z,2.88
2023-09-19T21:34:26.668Z,2.42
2023-09-19T21:36:54.667Z,3.10
2023-09-19T21:39:21.690Z,2.85
2023-09-19T21:41:48.375Z,3.00
2023-09-19T21:44:15.295Z,2.90
2023-09-19T21:46:42.121Z,2.75
2023-09-19T21:49:08.956Z,3.05
2023-09-19T21:51:35.897Z,2.90
2023-09-19T21:54:05.543Z,3.00
2023-09-19T21:56:32.400Z,3.00
2023-09-19T21:58:59.240Z,2.85
2023-09-19T22:01:26.567Z,3.25
2023-09-19T22:03:56.846Z,3.28
2023-09-19T22:06:23.702Z,3.83
2023-09-19T22:08:52.037Z,3.17
2023-09-19T22:11:21.716Z,2.95
2023-09-19T22:13:49.121Z,2.97
2023-09-19T22:16:18.457Z,3.10
2023-09-19T22:18:47.380Z,2.92
2023-09-19T22:21:23.076Z,3.33
2023-09-19T22:23:56.628Z,3.13
2023-09-19T22:26:23.890Z,3.28
2023-09-19T22:28:53.922Z,3.15
2023-09-19T22:31:28.501Z,3.00
2023-09-19T22:33:56.591Z,2.60
2023-09-19T22:36:40.744Z,3.65
2023-09-19T22:39:34.245Z,3.08
2023-09-19T22:42:00.968Z,3.10
2023-09-19T22:44:28.963Z,3.45
2023-09-19T22:46:57.202Z,2.90
2023-09-19T22:49:27.837Z,2.65
2023-09-19T22:51:59.916Z,4.32
2023-09-19T22:54:36.886Z,3.30
2023-09-19T22:57:06.231Z,3.75
2023-09-19T22:59:35.040Z,3.80
2023-09-19T23:02:01.984Z,3.60
2023-09-19T23:04:28.689Z,3.80
2023-09-19T23:07:01.772Z,2.97
2023-09-19T23:09:29.341Z,3.38
2023-09-19T23:12:03.518Z,3.47
2023-09-19T23:14:43.109Z,3.45
2023-09-19T23:17:14.295Z,3.47
2023-09-19T23:19:49.965Z,3.70
2023-09-19T23:22:19.730Z,3.50
2023-09-19T23:24:50.963Z,3.30
2023-09-19T23:27:25.773Z,3.40
2023-09-19T23:29:55.466Z,3.88
2023-09-19T23:32:22.994Z,3.33
2023-09-19T23:34:49.982Z,3.80
2023-09-19T23:37:17.364Z,3.60
2023-09-19T23:39:43.983Z,3.85
2023-09-19T23:42:13.737Z,3.80
2023-09-19T23:44:44.644Z,4.28
2023-09-19T23:47:12.184Z,4.20
2023-09-19T23:49:40.520Z,3.90
2023-09-19T23:52:08.055Z,3.88
2023-09-19T23:54:36.284Z,3.75
2023-09-19T23:57:07.517Z,3.42
2023-09-19T23:59:34.619Z,3.75
